KDNN

Dalton Municipal Airport

Dalton, Georgia, USA
METAR KDNN 190315Z AUTO 00000KT 10SM CLR M05/M07 A3036 RMK AO2
Observed Flight Rules
Jan-19 @ 03:15 UTC (30 minutes ago) Visual Flight Rules
Wind Visibility Clouds
Calm 10 miles
  • Clear skies
Temperatures Readings
Current -5°C / 23°F
Dewpoint -7°C / 19°F
Humidity 86%
Altimeter 30.36" Hg
Pressure 1028 hPa
Elevation 216
METAR KDNN 190315Z AUTO 00000KT 10SM CLR M05/M07 A3036 RMK AO2
Observed Flight Rules
Jan-19 @ 03:15 UTC
(30 minutes ago)
VFR
Wind Visibility
Calm 10 miles
Clouds
  • Clear skies
Temperature Dewpoint
-5°C / 23°F -7°C / 19°F
Humidity Altimeter Pressure
86% 30.36" Hg 1028 hPa